Time;durP1;ratioP1;P1;durP2;ratioP2;P2;SDS_P1;SDS_P2;PMS_P1;PMS_P2;Temp;Humidity;BMP_temperature;BMP_pressure;BME280_temperature;BME280_humidity;BME280_pressure;Samples;Min_cycle;Max_cycle;Signal;HPM_P1;HPM_P2
2022/07/17 00:02:24;;;;;;;3.37;3.07;;;;;;;;;;5029062;28;20234;-68
2022/07/17 00:04:52;;;;;;;4.17;2.97;;;;;;;;;;5032433;28;20198;-70
2022/07/17 00:07:19;;;;;;;2.93;2.33;;;;;;;;;;5045308;28;20225;-67
2022/07/17 00:09:47;;;;;;;4.70;3.00;;;;;;;;;;5026523;28;20213;-68
2022/07/17 00:12:14;;;;;;;4.53;2.90;;;;;;;;;;5037937;28;20206;-67
2022/07/17 00:14:41;;;;;;;4.37;3.17;;;;;;;;;;5018631;28;20214;-67
2022/07/17 00:17:09;;;;;;;3.40;3.10;;;;;;;;;;5038803;28;20237;-67
2022/07/17 00:19:36;;;;;;;3.70;3.30;;;;;;;;;;5022670;28;20915;-68
2022/07/17 00:22:04;;;;;;;4.60;3.13;;;;;;;;;;5028812;28;20289;-68
2022/07/17 00:24:31;;;;;;;4.93;3.10;;;;;;;;;;5025710;28;20198;-67
2022/07/17 00:26:59;;;;;;;4.40;3.00;;;;;;;;;;5051424;28;20288;-67
2022/07/17 00:29:27;;;;;;;3.33;3.10;;;;;;;;;;5062727;28;20305;-67
2022/07/17 00:31:55;;;;;;;4.67;3.30;;;;;;;;;;5034206;28;20213;-68
2022/07/17 00:34:22;;;;;;;3.47;3.17;;;;;;;;;;5014167;28;20563;-67
2022/07/17 00:36:50;;;;;;;6.20;3.43;;;;;;;;;;5020994;28;20583;-67
2022/07/17 00:39:17;;;;;;;3.50;3.20;;;;;;;;;;5039584;28;20272;-67
2022/07/17 00:41:45;;;;;;;4.23;3.27;;;;;;;;;;5020300;28;20219;-67
2022/07/17 00:44:13;;;;;;;4.43;3.50;;;;;;;;;;5025086;28;20225;-67
2022/07/17 00:46:41;;;;;;;3.53;3.23;;;;;;;;;;5049593;28;20253;-68
2022/07/17 00:49:09;;;;;;;3.47;3.17;;;;;;;;;;5047417;28;20231;-67
2022/07/17 00:51:36;;;;;;;4.93;3.13;;;;;;;;;;5048649;28;20569;-67
2022/07/17 00:54:04;;;;;;;4.63;3.20;;;;;;;;;;5033331;28;20821;-66
2022/07/17 00:56:37;;;;;;;3.33;3.03;;;;;;;;;;5014881;28;20226;-66
2022/07/17 00:59:04;;;;;;;3.50;3.10;;;;;;;;;;5043547;28;20265;-68
2022/07/17 01:01:32;;;;;;;4.80;3.53;;;;;;;;;;5035390;28;20217;-67
2022/07/17 01:04:00;;;;;;;4.00;3.53;;;;;;;;;;5039570;28;20205;-67
2022/07/17 01:06:27;;;;;;;5.07;3.20;;;;;;;;;;5026232;28;20406;-66
2022/07/17 01:08:55;;;;;;;4.33;3.73;;;;;;;;;;5045070;28;20218;-67
2022/07/17 01:11:22;;;;;;;3.63;3.33;;;;;;;;;;5018545;28;20588;-66
2022/07/17 01:13:50;;;;;;;3.53;3.23;;;;;;;;;;5018835;28;20229;-67
2022/07/17 01:16:18;;;;;;;6.20;3.37;;;;;;;;;;5037782;28;20237;-67
2022/07/17 01:18:45;;;;;;;3.73;3.43;;;;;;;;;;5022553;28;20252;-67
2022/07/17 01:21:13;;;;;;;4.67;3.23;;;;;;;;;;5040959;28;20194;-67
2022/07/17 01:23:40;;;;;;;3.97;3.27;;;;;;;;;;5020604;28;20312;-67
2022/07/17 01:26:08;;;;;;;4.87;3.30;;;;;;;;;;5026015;28;20226;-67
2022/07/17 01:28:35;;;;;;;4.70;3.07;;;;;;;;;;5018857;28;20225;-66
2022/07/17 01:31:03;;;;;;;3.63;3.20;;;;;;;;;;5015469;28;20215;-67
2022/07/17 01:33:30;;;;;;;4.10;3.10;;;;;;;;;;5018834;28;20205;-66
2022/07/17 01:35:58;;;;;;;4.40;3.10;;;;;;;;;;5030785;28;20218;-67
2022/07/17 01:38:26;;;;;;;3.77;3.40;;;;;;;;;;5021196;28;20238;-67
2022/07/17 01:40:53;;;;;;;4.40;3.23;;;;;;;;;;5035343;28;20538;-67
2022/07/17 01:43:21;;;;;;;4.17;3.10;;;;;;;;;;5024000;28;20410;-67
2022/07/17 01:45:48;;;;;;;4.83;3.50;;;;;;;;;;5026849;28;20244;-65
2022/07/17 01:48:29;;;;;;;3.53;3.23;;;;;;;;;;5029934;28;20282;-66
2022/07/17 01:50:57;;;;;;;3.80;3.50;;;;;;;;;;5036783;28;20627;-68
2022/07/17 01:53:24;;;;;;;5.30;3.83;;;;;;;;;;5025455;28;20261;-67
2022/07/17 01:55:52;;;;;;;3.87;3.43;;;;;;;;;;5022803;28;20272;-68
2022/07/17 01:58:19;;;;;;;4.10;3.20;;;;;;;;;;5020802;28;20307;-68
2022/07/17 02:00:47;;;;;;;3.60;3.30;;;;;;;;;;5032900;28;20206;-67
2022/07/17 02:03:14;;;;;;;6.43;4.60;;;;;;;;;;5043517;28;20225;-67
2022/07/17 02:05:42;;;;;;;5.00;4.57;;;;;;;;;;5027678;28;20256;-68
2022/07/17 02:08:09;;;;;;;4.10;3.80;;;;;;;;;;5015889;28;20230;-67
2022/07/17 02:10:39;;;;;;;5.30;3.60;;;;;;;;;;5040577;28;20210;-67
2022/07/17 02:13:06;;;;;;;3.90;3.50;;;;;;;;;;5029528;28;20218;-67
2022/07/17 02:15:34;;;;;;;4.60;3.70;;;;;;;;;;5037645;28;20570;-66
2022/07/17 02:18:01;;;;;;;4.70;4.00;;;;;;;;;;5023222;28;20645;-67
2022/07/17 02:20:28;;;;;;;5.60;3.83;;;;;;;;;;5042035;28;20207;-67
2022/07/17 02:22:56;;;;;;;11.47;3.90;;;;;;;;;;5035866;28;20256;-68
2022/07/17 02:25:23;;;;;;;8.00;3.87;;;;;;;;;;5008285;28;20211;-67
2022/07/17 02:27:51;;;;;;;3.77;3.47;;;;;;;;;;5013151;28;20696;-67
2022/07/17 02:30:19;;;;;;;4.10;3.70;;;;;;;;;;5017955;28;20883;-67
2022/07/17 02:32:47;;;;;;;5.93;4.00;;;;;;;;;;5029086;28;20206;-67
2022/07/17 02:35:14;;;;;;;3.77;3.47;;;;;;;;;;5041346;28;20273;-66
2022/07/17 02:37:42;;;;;;;4.70;3.50;;;;;;;;;;5026995;28;20707;-68
2022/07/17 02:40:10;;;;;;;4.20;3.80;;;;;;;;;;5023667;28;20297;-67
2022/07/17 02:42:38;;;;;;;4.40;3.80;;;;;;;;;;5020479;28;20768;-67
2022/07/17 02:45:08;;;;;;;7.37;6.67;;;;;;;;;;5011213;28;20198;-67
2022/07/17 02:47:36;;;;;;;8.00;5.70;;;;;;;;;;5020492;28;20560;-67
2022/07/17 02:50:06;;;;;;;5.30;4.80;;;;;;;;;;5031710;28;20218;-65
2022/07/17 02:52:33;;;;;;;4.30;3.83;;;;;;;;;;5021807;28;20207;-67
2022/07/17 02:55:01;;;;;;;4.77;4.20;;;;;;;;;;5023209;28;20740;-67
2022/07/17 02:57:28;;;;;;;3.60;3.30;;;;;;;;;;5016991;28;20711;-67
2022/07/17 02:59:56;;;;;;;4.00;3.60;;;;;;;;;;5020855;28;20286;-67
2022/07/17 03:02:23;;;;;;;4.50;3.80;;;;;;;;;;5017056;28;20518;-67
2022/07/17 03:04:50;;;;;;;5.23;3.87;;;;;;;;;;5015891;28;20656;-67
2022/07/17 03:07:18;;;;;;;4.63;3.80;;;;;;;;;;5025048;28;20276;-67
2022/07/17 03:09:45;;;;;;;4.73;4.30;;;;;;;;;;5039523;28;20670;-67
2022/07/17 03:12:13;;;;;;;4.43;3.77;;;;;;;;;;5008439;28;20206;-66
2022/07/17 03:14:40;;;;;;;4.40;3.70;;;;;;;;;;5017981;28;20206;-67
2022/07/17 03:17:09;;;;;;;4.27;3.80;;;;;;;;;;5023066;28;20226;-67
2022/07/17 03:19:36;;;;;;;4.10;3.70;;;;;;;;;;5018436;28;20230;-65
2022/07/17 03:22:04;;;;;;;4.23;3.83;;;;;;;;;;5020296;28;21473;-67
2022/07/17 03:24:32;;;;;;;4.03;3.70;;;;;;;;;;5016071;28;20198;-67
2022/07/17 03:26:59;;;;;;;3.93;3.60;;;;;;;;;;5036686;28;20214;-67
2022/07/17 03:29:27;;;;;;;5.53;4.30;;;;;;;;;;5030739;28;20798;-67
2022/07/17 03:31:54;;;;;;;4.17;3.73;;;;;;;;;;5022938;28;20202;-67
2022/07/17 03:34:22;;;;;;;3.70;3.40;;;;;;;;;;5018390;28;20259;-67
2022/07/17 03:36:50;;;;;;;4.27;3.90;;;;;;;;;;5016925;28;20230;-67
2022/07/17 03:39:17;;;;;;;3.83;3.43;;;;;;;;;;5024068;28;20230;-67
2022/07/17 03:41:45;;;;;;;4.93;3.77;;;;;;;;;;5023205;28;22109;-67
2022/07/17 03:44:12;;;;;;;4.93;3.67;;;;;;;;;;5018511;28;20683;-67
2022/07/17 03:46:40;;;;;;;3.80;3.43;;;;;;;;;;5002422;28;20261;-67
2022/07/17 03:49:10;;;;;;;4.70;3.80;;;;;;;;;;5023667;28;20751;-66
2022/07/17 03:51:37;;;;;;;4.57;3.90;;;;;;;;;;5031486;28;20261;-67
2022/07/17 03:54:04;;;;;;;4.97;4.40;;;;;;;;;;5034798;28;20307;-67
2022/07/17 03:56:32;;;;;;;4.00;3.70;;;;;;;;;;5019935;28;20643;-67
2022/07/17 03:59:00;;;;;;;4.43;4.03;;;;;;;;;;5035844;28;20295;-67
2022/07/17 04:01:27;;;;;;;4.30;3.90;;;;;;;;;;5021160;28;20198;-68
2022/07/17 04:03:55;;;;;;;4.37;3.93;;;;;;;;;;5013423;28;20743;-67
2022/07/17 04:06:23;;;;;;;4.13;3.70;;;;;;;;;;5019238;28;20215;-67
2022/07/17 04:08:51;;;;;;;5.47;4.10;;;;;;;;;;5027931;28;20213;-68
2022/07/17 04:11:20;;;;;;;6.13;4.37;;;;;;;;;;5029436;28;20760;-68
2022/07/17 04:13:48;;;;;;;4.63;4.20;;;;;;;;;;5016171;28;20218;-66
2022/07/17 04:16:15;;;;;;;4.53;4.13;;;;;;;;;;5014012;28;20229;-67
2022/07/17 04:18:43;;;;;;;4.20;3.90;;;;;;;;;;5044624;28;20707;-66
2022/07/17 04:21:11;;;;;;;4.20;3.83;;;;;;;;;;5041524;28;20276;-67
2022/07/17 04:23:38;;;;;;;4.80;4.30;;;;;;;;;;5018306;28;20213;-66
2022/07/17 04:26:06;;;;;;;4.90;4.30;;;;;;;;;;5038043;28;20214;-68
2022/07/17 04:28:37;;;;;;;6.53;4.83;;;;;;;;;;5017870;28;20581;-67
2022/07/17 04:31:05;;;;;;;6.40;4.40;;;;;;;;;;5033884;28;20648;-66
2022/07/17 04:33:32;;;;;;;4.87;4.43;;;;;;;;;;5015640;28;20305;-66
2022/07/17 04:36:00;;;;;;;4.73;4.33;;;;;;;;;;5026586;28;20307;-68
2022/07/17 04:38:27;;;;;;;5.63;5.10;;;;;;;;;;5014699;28;20226;-67
2022/07/17 04:40:55;;;;;;;6.30;4.57;;;;;;;;;;5017189;28;20513;-66
2022/07/17 04:43:22;;;;;;;5.17;3.90;;;;;;;;;;5012110;28;20260;-69
2022/07/17 04:45:50;;;;;;;5.17;4.07;;;;;;;;;;5032152;28;20234;-66
2022/07/17 04:48:17;;;;;;;4.50;4.10;;;;;;;;;;5020589;28;20214;-67
2022/07/17 04:50:44;;;;;;;5.23;3.90;;;;;;;;;;5026240;28;20242;-68
2022/07/17 04:53:12;;;;;;;4.17;3.63;;;;;;;;;;5047868;28;20206;-67
2022/07/17 04:55:39;;;;;;;4.53;4.13;;;;;;;;;;5019999;28;20237;-68
2022/07/17 04:58:06;;;;;;;4.20;3.90;;;;;;;;;;5026099;28;20214;-68
2022/07/17 05:00:34;;;;;;;5.20;4.70;;;;;;;;;;5025994;28;20364;-69
2022/07/17 05:03:02;;;;;;;4.27;3.97;;;;;;;;;;5040522;28;20198;-65
2022/07/17 05:05:29;;;;;;;4.30;3.97;;;;;;;;;;5039905;28;20234;-70
2022/07/17 05:07:57;;;;;;;4.77;4.00;;;;;;;;;;5063631;28;20205;-70
2022/07/17 05:10:24;;;;;;;4.10;3.70;;;;;;;;;;5019432;28;20206;-65
2022/07/17 05:12:54;;;;;;;3.97;3.67;;;;;;;;;;5022579;28;20202;-69
2022/07/17 05:15:22;;;;;;;5.03;4.23;;;;;;;;;;5028682;28;20206;-69
2022/07/17 05:17:49;;;;;;;4.40;3.90;;;;;;;;;;5018250;28;20209;-68
2022/07/17 05:20:16;;;;;;;4.30;3.90;;;;;;;;;;5024713;28;20237;-67
2022/07/17 05:22:44;;;;;;;5.17;3.73;;;;;;;;;;5018443;28;20730;-67
2022/07/17 05:25:11;;;;;;;3.90;3.33;;;;;;;;;;5034640;28;20656;-69
2022/07/17 05:27:39;;;;;;;5.03;4.30;;;;;;;;;;5038462;28;20208;-67
2022/07/17 05:30:06;;;;;;;6.50;4.73;;;;;;;;;;5026309;28;20202;-68
2022/07/17 05:32:34;;;;;;;6.37;4.53;;;;;;;;;;5030367;28;20207;-68
2022/07/17 05:35:01;;;;;;;4.57;3.43;;;;;;;;;;5041610;28;20213;-66
2022/07/17 05:37:29;;;;;;;2.93;2.67;;;;;;;;;;5020902;28;20272;-70
2022/07/17 05:39:56;;;;;;;3.00;2.50;;;;;;;;;;5031563;28;20273;-69
2022/07/17 05:42:24;;;;;;;2.70;2.38;;;;;;;;;;5019021;28;20285;-67
2022/07/17 05:44:51;;;;;;;2.65;2.42;;;;;;;;;;5016934;28;20210;-67
2022/07/17 05:47:19;;;;;;;2.63;1.90;;;;;;;;;;5023700;28;20222;-67
2022/07/17 05:49:46;;;;;;;2.33;2.20;;;;;;;;;;5026329;28;20239;-67
2022/07/17 05:52:13;;;;;;;2.65;2.17;;;;;;;;;;5041477;28;20221;-67
2022/07/17 05:54:41;;;;;;;2.30;1.90;;;;;;;;;;5020907;28;20694;-69
2022/07/17 05:57:08;;;;;;;3.22;2.10;;;;;;;;;;5021221;28;20226;-67
2022/07/17 05:59:37;;;;;;;2.08;1.90;;;;;;;;;;5016429;28;20338;-67
2022/07/17 06:02:05;;;;;;;3.20;2.20;;;;;;;;;;5031592;28;20272;-68
2022/07/17 06:04:32;;;;;;;3.15;2.25;;;;;;;;;;5003830;28;20207;-68
2022/07/17 06:07:00;;;;;;;1.80;1.70;;;;;;;;;;5037322;28;20723;-67
2022/07/17 06:09:29;;;;;;;1.85;1.73;;;;;;;;;;5022652;28;20202;-67
2022/07/17 06:11:56;;;;;;;2.15;1.50;;;;;;;;;;5036979;28;20210;-67
2022/07/17 06:14:24;;;;;;;1.70;1.60;;;;;;;;;;5035559;28;20261;-67
2022/07/17 06:16:52;;;;;;;2.22;1.65;;;;;;;;;;5024107;28;20284;-67
2022/07/17 06:19:19;;;;;;;1.90;1.80;;;;;;;;;;5020657;28;20521;-67
2022/07/17 06:21:47;;;;;;;1.90;1.70;;;;;;;;;;5020217;28;20195;-67
2022/07/17 06:24:14;;;;;;;4.00;2.20;;;;;;;;;;5026300;28;20058;-67
2022/07/17 06:26:42;;;;;;;3.63;1.90;;;;;;;;;;5033706;28;20412;-66
2022/07/17 06:29:09;;;;;;;2.08;1.88;;;;;;;;;;5041832;28;20288;-68
2022/07/17 06:31:37;;;;;;;2.70;2.00;;;;;;;;;;5018993;28;20202;-67
2022/07/17 06:34:05;;;;;;;2.00;1.90;;;;;;;;;;5013753;28;20301;-67
2022/07/17 06:36:32;;;;;;;5.28;1.98;;;;;;;;;;5015701;28;20704;-67
2022/07/17 06:38:59;;;;;;;3.20;2.10;;;;;;;;;;5038275;28;20244;-68
2022/07/17 06:41:27;;;;;;;2.33;2.13;;;;;;;;;;5024872;28;20281;-67
2022/07/17 06:43:55;;;;;;;2.35;1.88;;;;;;;;;;5041217;28;20198;-67
2022/07/17 06:46:23;;;;;;;2.17;2.05;;;;;;;;;;5019854;28;20284;-67
2022/07/17 06:48:53;;;;;;;1.90;1.80;;;;;;;;;;5040287;28;20294;-67
2022/07/17 06:51:21;;;;;;;2.13;1.92;;;;;;;;;;5019484;28;20210;-67
2022/07/17 06:53:48;;;;;;;2.30;2.00;;;;;;;;;;5023334;28;20389;-67
2022/07/17 06:56:16;;;;;;;2.95;1.90;;;;;;;;;;4994004;28;20765;-67
2022/07/17 06:58:43;;;;;;;3.63;2.10;;;;;;;;;;4990663;28;20624;-66
2022/07/17 07:01:11;;;;;;;2.53;2.20;;;;;;;;;;5000585;28;20210;-67
2022/07/17 07:03:39;;;;;;;2.88;2.13;;;;;;;;;;5013550;28;20613;-68
2022/07/17 07:06:06;;;;;;;2.42;2.00;;;;;;;;;;5027888;28;20234;-67
2022/07/17 07:08:34;;;;;;;2.88;2.30;;;;;;;;;;5016016;28;20256;-68
2022/07/17 07:11:02;;;;;;;2.80;2.10;;;;;;;;;;5017455;28;20234;-67
2022/07/17 07:13:29;;;;;;;2.45;2.20;;;;;;;;;;5000593;28;20333;-68
2022/07/17 07:15:57;;;;;;;2.63;2.03;;;;;;;;;;5010500;28;20715;-68
2022/07/17 07:18:24;;;;;;;3.10;1.80;;;;;;;;;;5013976;28;20218;-67
2022/07/17 07:20:53;;;;;;;2.88;2.15;;;;;;;;;;5006117;28;20295;-66
2022/07/17 07:23:20;;;;;;;4.63;2.15;;;;;;;;;;5005775;28;20218;-68
2022/07/17 07:25:47;;;;;;;2.30;2.10;;;;;;;;;;5001676;28;20680;-66
2022/07/17 07:28:15;;;;;;;2.15;2.05;;;;;;;;;;5006674;28;20210;-67
2022/07/17 07:30:42;;;;;;;3.72;2.03;;;;;;;;;;5005215;28;21319;-66
2022/07/17 07:33:10;;;;;;;3.15;2.03;;;;;;;;;;5007670;28;20261;-67
2022/07/17 07:35:37;;;;;;;2.42;1.92;;;;;;;;;;5008460;28;20241;-68
2022/07/17 07:38:05;;;;;;;4.20;2.15;;;;;;;;;;5016000;28;20249;-69
2022/07/17 07:40:32;;;;;;;3.88;2.30;;;;;;;;;;5009618;28;20241;-66
2022/07/17 07:42:59;;;;;;;3.38;2.30;;;;;;;;;;5036199;28;20215;-66
2022/07/17 07:45:27;;;;;;;5.03;2.20;;;;;;;;;;5015034;28;20232;-68
2022/07/17 07:47:54;;;;;;;2.58;2.17;;;;;;;;;;5006435;28;20206;-68
2022/07/17 07:50:23;;;;;;;3.83;2.05;;;;;;;;;;5017649;28;20206;-68
2022/07/17 07:52:51;;;;;;;2.05;1.95;;;;;;;;;;5021952;28;20209;-67
2022/07/17 07:55:21;;;;;;;3.67;2.25;;;;;;;;;;5012514;28;20204;-67
2022/07/17 07:57:49;;;;;;;2.60;1.95;;;;;;;;;;5022289;28;20562;-67
2022/07/17 08:00:17;;;;;;;4.05;2.50;;;;;;;;;;5031213;28;20227;-67
2022/07/17 08:02:45;;;;;;;2.67;2.00;;;;;;;;;;5037603;28;20566;-67
2022/07/17 08:05:13;;;;;;;4.75;2.22;;;;;;;;;;5025566;28;20623;-67
2022/07/17 08:07:40;;;;;;;2.53;2.20;;;;;;;;;;5044326;28;20203;-68
2022/07/17 08:10:08;;;;;;;2.25;2.05;;;;;;;;;;5022796;28;20202;-67
2022/07/17 08:12:35;;;;;;;2.00;1.90;;;;;;;;;;5018490;28;20217;-68
2022/07/17 08:15:18;;;;;;;2.50;1.98;;;;;;;;;;5022477;28;20577;-68
2022/07/17 08:17:46;;;;;;;2.55;1.88;;;;;;;;;;5023028;28;20688;-68
2022/07/17 08:20:15;;;;;;;2.03;1.85;;;;;;;;;;5028222;28;20230;-67
2022/07/17 08:22:42;;;;;;;4.63;1.73;;;;;;;;;;5024005;28;20606;-67
2022/07/17 08:25:30;;;;;;;2.47;1.90;;;;;;;;;;5037704;28;20647;-68
2022/07/17 08:27:58;;;;;;;4.55;2.45;;;;;;;;;;5039601;28;20660;-66
2022/07/17 08:30:25;;;;;;;4.25;1.90;;;;;;;;;;5018347;28;20313;-67
2022/07/17 08:32:54;;;;;;;2.00;1.90;;;;;;;;;;5040351;28;20624;-67
2022/07/17 08:35:22;;;;;;;3.38;1.83;;;;;;;;;;5033257;28;20217;-67
2022/07/17 08:37:51;;;;;;;2.08;1.88;;;;;;;;;;5013739;28;20221;-67
2022/07/17 08:40:20;;;;;;;2.45;2.25;;;;;;;;;;5006338;28;20244;-67
2022/07/17 08:42:48;;;;;;;2.15;1.90;;;;;;;;;;5009020;28;20210;-66
2022/07/17 08:45:16;;;;;;;2.08;1.88;;;;;;;;;;5014904;28;20217;-69
2022/07/17 08:47:43;;;;;;;2.55;2.00;;;;;;;;;;5031344;28;20210;-68
2022/07/17 08:50:12;;;;;;;2.15;1.95;;;;;;;;;;5022432;28;20536;-68
2022/07/17 08:52:41;;;;;;;2.85;1.80;;;;;;;;;;5032330;28;20215;-68
2022/07/17 08:55:13;;;;;;;2.67;2.22;;;;;;;;;;5020156;28;20215;-67
2022/07/17 08:57:42;;;;;;;3.22;1.77;;;;;;;;;;5040195;28;20218;-67
2022/07/17 09:00:18;;;;;;;2.00;1.83;;;;;;;;;;5025725;28;20306;-67
2022/07/17 09:02:56;;;;;;;2.38;2.08;;;;;;;;;;5025017;28;20225;-67
2022/07/17 09:05:25;;;;;;;4.40;2.13;;;;;;;;;;5037271;28;20218;-68
2022/07/17 09:07:52;;;;;;;2.65;2.17;;;;;;;;;;5008513;28;20577;-68
2022/07/17 09:10:30;;;;;;;2.45;2.00;;;;;;;;;;5023446;28;20627;-69
2022/07/17 09:12:57;;;;;;;3.00;1.90;;;;;;;;;;5036024;28;20215;-68
2022/07/17 09:15:25;;;;;;;2.22;1.63;;;;;;;;;;5031683;28;20250;-68
2022/07/17 09:17:53;;;;;;;2.47;2.00;;;;;;;;;;5024302;28;20707;-67
2022/07/17 09:20:21;;;;;;;1.67;1.50;;;;;;;;;;5020662;28;20230;-68
2022/07/17 09:22:59;;;;;;;2.67;2.20;;;;;;;;;;5031646;28;20210;-67
2022/07/17 09:25:40;;;;;;;2.42;1.92;;;;;;;;;;5025174;28;20202;-67
2022/07/17 09:28:08;;;;;;;2.53;1.90;;;;;;;;;;5016623;28;20703;-67
2022/07/17 09:30:37;;;;;;;1.65;1.52;;;;;;;;;;5029965;28;20214;-67
2022/07/17 09:33:07;;;;;;;2.42;1.85;;;;;;;;;;5013437;28;20206;-67
2022/07/17 09:35:35;;;;;;;2.80;1.50;;;;;;;;;;5020385;28;20371;-67
2022/07/17 09:38:02;;;;;;;4.20;1.90;;;;;;;;;;5030611;28;20736;-67
2022/07/17 09:43:17;;;;;;;2.13;2.00;;;;;;;;;;5035388;28;20327;-67
2022/07/17 09:45:44;;;;;;;2.90;1.83;;;;;;;;;;5016526;28;20696;-67
2022/07/17 09:48:12;;;;;;;2.00;1.88;;;;;;;;;;5012004;28;20206;-68
2022/07/17 09:50:40;;;;;;;2.22;2.03;;;;;;;;;;5015991;28;20210;-67
2022/07/17 09:53:08;;;;;;;2.20;2.00;;;;;;;;;;5019645;28;20289;-67
2022/07/17 09:55:36;;;;;;;1.77;1.67;;;;;;;;;;5018048;28;20309;-67
2022/07/17 09:58:15;;;;;;;3.15;2.05;;;;;;;;;;5025668;28;20205;-67
2022/07/17 10:00:43;;;;;;;2.78;1.67;;;;;;;;;;5026625;28;20253;-68
2022/07/17 10:03:10;;;;;;;2.75;1.90;;;;;;;;;;5037797;28;20218;-66
2022/07/17 10:05:38;;;;;;;2.13;1.70;;;;;;;;;;5009095;28;20276;-67
2022/07/17 10:08:12;;;;;;;1.92;1.60;;;;;;;;;;5015124;28;20210;-66
2022/07/17 10:10:40;;;;;;;1.50;1.40;;;;;;;;;;5025718;28;20210;-64
2022/07/17 10:13:08;;;;;;;2.72;2.25;;;;;;;;;;5019531;28;21836;-68
2022/07/17 10:15:36;;;;;;;1.80;1.67;;;;;;;;;;5034672;28;20237;-67
2022/07/17 10:18:04;;;;;;;1.88;1.65;;;;;;;;;;5018619;28;20214;-67
2022/07/17 10:20:32;;;;;;;2.88;1.90;;;;;;;;;;5026374;28;20237;-67
2022/07/17 10:23:13;;;;;;;3.88;1.73;;;;;;;;;;5041543;28;20295;-67
2022/07/17 10:25:41;;;;;;;2.03;1.70;;;;;;;;;;5006210;28;20226;-67
2022/07/17 10:28:08;;;;;;;2.10;1.90;;;;;;;;;;5012444;28;20321;-70
2022/07/17 10:30:41;;;;;;;2.65;1.70;;;;;;;;;;5033008;28;20218;-70
2022/07/17 10:33:09;;;;;;;2.85;1.45;;;;;;;;;;5015735;28;20264;-67
2022/07/17 10:35:44;;;;;;;4.03;1.60;;;;;;;;;;5031872;28;20221;-68
2022/07/17 10:38:13;;;;;;;1.52;1.42;;;;;;;;;;5022616;28;20244;-68
2022/07/17 10:40:41;;;;;;;2.08;1.60;;;;;;;;;;5014986;28;20234;-70
2022/07/17 10:43:09;;;;;;;2.55;1.50;;;;;;;;;;5019060;28;20226;-67
2022/07/17 10:45:43;;;;;;;2.78;1.67;;;;;;;;;;5013943;28;20313;-66
2022/07/17 10:48:16;;;;;;;2.75;1.60;;;;;;;;;;5039617;28;20217;-68
2022/07/17 10:50:48;;;;;;;1.50;1.40;;;;;;;;;;5034202;28;20221;-67
2022/07/17 10:53:24;;;;;;;2.15;1.70;;;;;;;;;;5049811;28;20214;-67
2022/07/17 10:56:01;;;;;;;3.15;1.85;;;;;;;;;;5018062;28;20230;-70
2022/07/17 10:58:29;;;;;;;3.60;1.60;;;;;;;;;;5019132;28;20213;-68
2022/07/17 11:00:57;;;;;;;2.97;1.50;;;;;;;;;;5035967;28;20317;-68
2022/07/17 11:03:25;;;;;;;1.70;1.48;;;;;;;;;;5019974;28;20217;-67
2022/07/17 11:05:52;;;;;;;1.60;1.50;;;;;;;;;;5035993;28;20223;-67
2022/07/17 11:08:20;;;;;;;2.17;1.67;;;;;;;;;;5025665;28;20284;-66
2022/07/17 11:10:48;;;;;;;2.30;1.70;;;;;;;;;;5015484;28;20238;-68
2022/07/17 11:13:16;;;;;;;1.73;1.63;;;;;;;;;;5023189;28;20225;-67
2022/07/17 11:15:45;;;;;;;1.60;1.50;;;;;;;;;;5011020;28;20452;-68
2022/07/17 11:18:17;;;;;;;2.20;1.95;;;;;;;;;;5018519;28;20656;-68
2022/07/17 11:20:48;;;;;;;1.60;1.50;;;;;;;;;;5017976;28;20243;-69
2022/07/17 11:23:16;;;;;;;1.50;1.40;;;;;;;;;;5010673;28;20554;-66
2022/07/17 11:25:54;;;;;;;2.25;1.60;;;;;;;;;;5024830;28;20226;-66
2022/07/17 11:28:33;;;;;;;2.50;1.40;;;;;;;;;;5024731;28;20223;-67
2022/07/17 11:31:01;;;;;;;2.40;1.30;;;;;;;;;;5016704;28;20221;-67
2022/07/17 11:33:29;;;;;;;1.75;1.30;;;;;;;;;;5024362;28;20217;-66
2022/07/17 11:35:56;;;;;;;1.70;1.55;;;;;;;;;;5025303;28;20233;-67
2022/07/17 11:38:28;;;;;;;2.40;1.58;;;;;;;;;;5017998;28;20212;-68
2022/07/17 11:40:58;;;;;;;1.50;1.40;;;;;;;;;;5007892;28;20234;-69
2022/07/17 11:43:28;;;;;;;1.52;1.42;;;;;;;;;;5028326;28;20206;-67
2022/07/17 11:45:56;;;;;;;2.28;1.70;;;;;;;;;;5037578;28;20360;-67
2022/07/17 11:48:23;;;;;;;2.45;1.40;;;;;;;;;;5036239;28;20203;-67
2022/07/17 11:50:55;;;;;;;1.60;1.50;;;;;;;;;;5025085;28;20206;-66
2022/07/17 11:53:31;;;;;;;1.70;1.60;;;;;;;;;;5037845;28;20206;-67
2022/07/17 11:55:59;;;;;;;1.65;1.55;;;;;;;;;;5023751;28;20230;-67
2022/07/17 11:58:26;;;;;;;1.77;1.50;;;;;;;;;;5025065;28;20214;-67
2022/07/17 12:01:04;;;;;;;1.50;1.40;;;;;;;;;;5023843;28;20216;-67
2022/07/17 12:03:32;;;;;;;1.88;1.60;;;;;;;;;;5020929;28;20206;-66
2022/07/17 12:05:59;;;;;;;3.35;1.65;;;;;;;;;;5050886;28;20233;-67
2022/07/17 12:08:27;;;;;;;2.80;1.60;;;;;;;;;;5034619;28;20806;-68
2022/07/17 12:11:05;;;;;;;1.65;1.55;;;;;;;;;;5028536;28;20271;-68
2022/07/17 12:13:46;;;;;;;1.60;1.40;;;;;;;;;;5008907;28;20683;-69
2022/07/17 12:16:24;;;;;;;2.15;1.50;;;;;;;;;;5009371;28;20326;-68
2022/07/17 12:19:01;;;;;;;1.58;1.48;;;;;;;;;;5020127;28;20305;-66
2022/07/17 12:21:29;;;;;;;2.45;1.85;;;;;;;;;;5013697;28;20296;-67
2022/07/17 12:24:02;;;;;;;1.70;1.60;;;;;;;;;;5022602;28;20202;-67
2022/07/17 12:26:29;;;;;;;2.30;1.67;;;;;;;;;;5019717;28;20356;-66
2022/07/17 12:28:57;;;;;;;1.60;1.50;;;;;;;;;;5008670;28;20198;-65
2022/07/17 12:31:28;;;;;;;3.28;2.10;;;;;;;;;;5016466;28;20664;-68
2022/07/17 12:33:56;;;;;;;2.58;1.50;;;;;;;;;;5011045;28;20698;-67
2022/07/17 12:36:23;;;;;;;1.77;1.52;;;;;;;;;;5004705;28;20226;-67
2022/07/17 12:38:51;;;;;;;1.63;1.52;;;;;;;;;;5001665;28;20215;-68
2022/07/17 12:41:19;;;;;;;1.55;1.45;;;;;;;;;;4997590;28;20238;-68
2022/07/17 12:43:47;;;;;;;1.73;1.55;;;;;;;;;;5007266;28;20229;-68
2022/07/17 12:46:16;;;;;;;5.38;3.75;;;;;;;;;;5003376;28;20234;-67
2022/07/17 12:48:45;;;;;;;2.25;1.70;;;;;;;;;;4992940;28;20386;-66
2022/07/17 12:51:13;;;;;;;1.60;1.50;;;;;;;;;;5022568;28;20207;-68
2022/07/17 12:53:41;;;;;;;1.67;1.55;;;;;;;;;;5005465;28;20215;-69
2022/07/17 12:56:09;;;;;;;1.70;1.48;;;;;;;;;;5016772;28;20489;-68
2022/07/17 12:58:37;;;;;;;2.58;1.58;;;;;;;;;;4995207;28;20662;-67
2022/07/17 13:01:05;;;;;;;1.60;1.50;;;;;;;;;;5000902;28;20243;-68
2022/07/17 13:03:34;;;;;;;2.92;1.48;;;;;;;;;;5007100;28;20212;-67
2022/07/17 13:06:02;;;;;;;2.60;1.60;;;;;;;;;;5003608;28;20241;-67
2022/07/17 13:08:30;;;;;;;1.50;1.40;;;;;;;;;;5001009;28;20158;-67
2022/07/17 13:10:57;;;;;;;2.60;1.48;;;;;;;;;;5012882;28;20297;-66
2022/07/17 13:13:28;;;;;;;2.40;1.40;;;;;;;;;;5007586;28;20796;-67
2022/07/17 13:15:56;;;;;;;1.50;1.38;;;;;;;;;;5005639;28;20773;-67
2022/07/17 13:18:23;;;;;;;1.90;1.80;;;;;;;;;;5009004;28;20202;-66
2022/07/17 13:20:51;;;;;;;1.98;1.58;;;;;;;;;;5007715;28;20225;-65
2022/07/17 13:23:28;;;;;;;1.08;1.08;;;;;;;;;;5003937;28;20205;-66
2022/07/17 13:25:56;;;;;;;2.60;1.58;;;;;;;;;;5013300;28;20662;-67
2022/07/17 13:28:24;;;;;;;2.53;1.70;;;;;;;;;;5018808;28;20334;-66
2022/07/17 13:30:52;;;;;;;1.60;1.50;;;;;;;;;;5003159;28;20214;-68
2022/07/17 13:33:20;;;;;;;2.72;1.65;;;;;;;;;;5009537;28;20212;-68
2022/07/17 13:35:47;;;;;;;1.70;1.60;;;;;;;;;;5025364;28;20237;-67
2022/07/17 13:38:15;;;;;;;1.50;1.40;;;;;;;;;;5022368;28;20927;-68
2022/07/17 13:40:42;;;;;;;2.00;1.80;;;;;;;;;;5016987;28;20316;-65
2022/07/17 13:43:10;;;;;;;1.75;1.60;;;;;;;;;;5016924;28;20217;-67
2022/07/17 13:45:37;;;;;;;3.20;1.50;;;;;;;;;;5018723;28;20249;-67
2022/07/17 13:48:05;;;;;;;1.60;1.50;;;;;;;;;;5014404;28;20211;-67
2022/07/17 13:50:33;;;;;;;1.55;1.45;;;;;;;;;;5028066;28;20202;-66
2022/07/17 13:53:01;;;;;;;1.58;1.48;;;;;;;;;;4987479;28;20209;-66
2022/07/17 13:55:29;;;;;;;1.50;1.40;;;;;;;;;;5007402;28;20218;-67
2022/07/17 13:58:08;;;;;;;2.00;1.90;;;;;;;;;;5014596;28;20202;-66
2022/07/17 14:00:36;;;;;;;1.73;1.63;;;;;;;;;;5027061;28;20241;-66
2022/07/17 14:03:03;;;;;;;1.95;1.42;;;;;;;;;;5018298;28;20210;-66
2022/07/17 14:05:31;;;;;;;2.17;1.70;;;;;;;;;;5016116;28;20312;-66
2022/07/17 14:07:59;;;;;;;1.58;1.50;;;;;;;;;;5032265;28;20202;-66
2022/07/17 14:10:27;;;;;;;1.70;1.60;;;;;;;;;;5027313;28;20207;-67
2022/07/17 14:12:55;;;;;;;2.40;1.80;;;;;;;;;;5014188;28;20649;-67
2022/07/17 14:15:22;;;;;;;1.65;1.55;;;;;;;;;;5018475;28;20214;-66
2022/07/17 14:17:50;;;;;;;1.90;1.80;;;;;;;;;;5008250;28;20203;-66
2022/07/17 14:20:17;;;;;;;1.80;1.70;;;;;;;;;;5011811;28;20198;-65
2022/07/17 14:22:45;;;;;;;1.90;1.70;;;;;;;;;;5022763;28;20212;-66
2022/07/17 14:25:13;;;;;;;1.92;1.52;;;;;;;;;;5000891;28;20305;-67
2022/07/17 14:27:40;;;;;;;1.83;1.73;;;;;;;;;;5006109;28;20214;-67
2022/07/17 14:30:09;;;;;;;1.70;1.60;;;;;;;;;;5024322;28;20211;-67
2022/07/17 14:32:37;;;;;;;1.80;1.70;;;;;;;;;;5004321;28;20207;-66
2022/07/17 14:35:05;;;;;;;1.77;1.67;;;;;;;;;;5008469;28;20206;-66
2022/07/17 14:37:33;;;;;;;3.67;1.83;;;;;;;;;;5031372;28;20231;-66
2022/07/17 14:40:07;;;;;;;1.60;1.50;;;;;;;;;;5023477;28;20738;-68
2022/07/17 14:42:35;;;;;;;2.67;1.90;;;;;;;;;;5026984;28;20222;-66
2022/07/17 14:45:03;;;;;;;3.78;1.70;;;;;;;;;;5017496;28;20222;-67
2022/07/17 14:47:30;;;;;;;2.00;1.90;;;;;;;;;;5029456;28;20219;-67
2022/07/17 14:49:58;;;;;;;4.03;1.80;;;;;;;;;;5012291;28;20210;-67
2022/07/17 14:52:25;;;;;;;1.80;1.70;;;;;;;;;;5000378;28;20729;-66
2022/07/17 14:54:53;;;;;;;2.42;1.85;;;;;;;;;;5007961;28;20217;-67